createdAt,value
2019-05-12T00:02:39.658Z,16.93
2019-05-12T00:05:43.880Z,13.73
2019-05-12T00:08:48.839Z,17.70
2019-05-12T00:11:55.635Z,16.53
2019-05-12T00:15:00.005Z,15.67
2019-05-12T00:18:04.539Z,16.07
2019-05-12T00:21:08.959Z,18.27
2019-05-12T00:24:13.379Z,19.00
2019-05-12T00:27:19.627Z,17.63
2019-05-12T00:30:45.883Z,17.70
2019-05-12T00:33:50.161Z,16.60
2019-05-12T00:36:55.259Z,17.67
2019-05-12T00:39:59.806Z,17.37
2019-05-12T00:43:05.078Z,17.10
2019-05-12T00:46:10.196Z,20.63
2019-05-12T00:49:15.160Z,16.20
2019-05-12T00:52:20.063Z,17.93
2019-05-12T00:55:25.228Z,15.63
2019-05-12T00:58:29.591Z,17.97
2019-05-12T01:01:35.127Z,18.93
2019-05-12T01:04:39.489Z,16.30
2019-05-12T01:07:43.874Z,17.70
2019-05-12T01:10:49.039Z,20.60
2019-05-12T01:13:54.152Z,16.27
2019-05-12T01:16:58.496Z,18.13
2019-05-12T01:20:03.119Z,17.27
2019-05-12T01:23:09.894Z,21.03
2019-05-12T01:26:14.943Z,17.80
2019-05-12T01:29:19.335Z,17.00
2019-05-12T01:32:34.095Z,16.93
2019-05-12T01:35:39.816Z,18.13
2019-05-12T01:38:44.905Z,24.90
2019-05-12T01:41:49.963Z,17.27
2019-05-12T01:44:55.158Z,16.00
2019-05-12T01:47:59.559Z,17.37
2019-05-12T01:51:04.202Z,17.80
2019-05-12T01:54:14.694Z,17.93
2019-05-12T01:57:14.720Z,18.17
2019-05-12T02:00:19.274Z,16.47
2019-05-12T02:03:24.363Z,17.20
2019-05-12T02:06:28.851Z,17.63
2019-05-12T02:09:35.250Z,17.03
2019-05-12T02:12:39.971Z,19.20
2019-05-12T02:15:45.206Z,15.47
2019-05-12T02:18:50.084Z,16.33
2019-05-12T02:21:55.215Z,15.00
2019-05-12T02:24:59.587Z,21.70
2019-05-12T02:28:03.966Z,18.83
2019-05-12T02:31:09.633Z,15.77
2019-05-12T02:34:15.799Z,16.17
2019-05-12T02:37:20.990Z,18.73
2019-05-12T02:40:25.681Z,15.60
2019-05-12T02:43:34.633Z,23.97
2019-05-12T02:46:37.607Z,23.87
2019-05-12T02:49:44.776Z,17.17
2019-05-12T02:52:48.205Z,18.03
2019-05-12T02:55:54.338Z,14.67
2019-05-12T02:59:05.058Z,17.37
2019-05-12T03:02:09.944Z,18.07
2019-05-12T03:05:14.966Z,17.93
2019-05-12T03:08:25.684Z,14.93
2019-05-12T03:11:29.773Z,13.83
2019-05-12T03:14:40.180Z,20.87
2019-05-12T03:17:40.896Z,15.33
2019-05-12T03:20:45.643Z,24.43
2019-05-12T03:23:50.180Z,16.00
2019-05-12T03:26:55.407Z,21.47
2019-05-12T03:29:59.854Z,18.47
2019-05-12T03:33:09.644Z,20.67
2019-05-12T03:36:10.699Z,20.03
2019-05-12T03:39:15.250Z,15.93
2019-05-12T03:42:20.063Z,19.53
2019-05-12T03:45:25.183Z,17.03
2019-05-12T03:48:29.912Z,18.73
2019-05-12T03:51:35.083Z,18.10
2019-05-12T03:54:40.107Z,17.00
2019-05-12T03:57:45.201Z,18.70
2019-05-12T04:00:49.776Z,21.40
2019-05-12T04:03:54.889Z,18.73
2019-05-12T04:06:59.205Z,19.43
2019-05-12T04:10:05.291Z,19.70
2019-05-12T04:13:10.158Z,18.37
2019-05-12T04:16:16.464Z,21.83
2019-05-12T04:19:20.743Z,20.67
2019-05-12T04:22:25.125Z,22.33
2019-05-12T04:25:46.253Z,18.93
2019-05-12T04:28:35.487Z,19.87
2019-05-12T04:31:39.886Z,19.80
2019-05-12T04:34:44.795Z,19.63
2019-05-12T04:37:49.304Z,16.00
2019-05-12T04:40:55.341Z,20.70
2019-05-12T04:47:25.314Z,20.97
2019-05-12T04:50:29.458Z,18.67
2019-05-12T04:53:35.196Z,20.87
2019-05-12T04:56:39.840Z,19.67
2019-05-12T04:59:45.113Z,21.37
2019-05-12T05:02:49.755Z,21.70
2019-05-12T05:05:54.909Z,20.37
2019-05-12T05:08:59.611Z,20.80
2019-05-12T05:12:04.670Z,19.70
2019-05-12T05:15:09.528Z,19.87
2019-05-12T05:18:13.924Z,21.43
2019-05-12T05:21:18.311Z,22.30
2019-05-12T05:24:23.529Z,21.17
2019-05-12T05:27:29.023Z,21.90
2019-05-12T05:30:34.298Z,20.60
2019-05-12T05:33:38.881Z,22.30
2019-05-12T05:36:43.463Z,19.63
2019-05-12T05:39:49.722Z,21.60
2019-05-12T05:42:54.321Z,23.10
2019-05-12T05:46:02.644Z,22.10
2019-05-12T05:49:05.047Z,20.50
2019-05-12T05:52:09.462Z,20.47
2019-05-12T05:55:19.965Z,21.30
2019-05-12T05:58:21.044Z,22.83
2019-05-12T06:01:25.481Z,21.17
2019-05-12T06:04:30.159Z,18.60
2019-05-12T06:07:38.906Z,22.50
2019-05-12T06:10:40.743Z,17.97
2019-05-12T06:13:45.159Z,19.50
2019-05-12T06:16:49.609Z,23.03
2019-05-12T06:19:54.555Z,17.77
2019-05-12T06:22:59.022Z,21.37
2019-05-12T06:26:04.645Z,20.63
2019-05-12T06:29:11.446Z,18.20
2019-05-12T06:32:15.657Z,21.37
2019-05-12T06:35:20.144Z,22.37
2019-05-12T06:38:31.082Z,20.27
2019-05-12T06:41:34.722Z,18.17
2019-05-12T06:44:39.196Z,20.47
2019-05-12T06:47:49.541Z,25.93
2019-05-12T06:50:53.390Z,20.40
2019-05-12T06:54:00.823Z,24.60
2019-05-12T06:57:18.771Z,20.27
2019-05-12T07:00:10.209Z,18.67
2019-05-12T07:03:19.569Z,22.10
2019-05-12T07:06:21.031Z,19.33
2019-05-12T07:09:28.728Z,20.40
2019-05-12T07:12:39.661Z,19.10
2019-05-12T07:15:40.565Z,17.37
2019-05-12T07:18:46.499Z,20.57
2019-05-12T07:21:58.238Z,19.50
2019-05-12T07:24:58.934Z,17.50
2019-05-12T07:28:07.661Z,17.67
2019-05-12T07:31:10.053Z,19.93
2019-05-12T07:34:14.595Z,17.27
2019-05-12T07:37:20.791Z,14.50
2019-05-12T07:40:30.067Z,15.60
2019-05-12T07:43:33.911Z,15.40
2019-05-12T07:46:39.584Z,13.90
2019-05-12T07:49:45.068Z,16.70
2019-05-12T07:52:49.646Z,14.23
2019-05-12T07:55:54.056Z,14.03
2019-05-12T07:58:58.578Z,13.00
2019-05-12T08:02:03.958Z,14.30
2019-05-12T08:05:11.017Z,13.87
2019-05-12T08:08:15.608Z,13.50
2019-05-12T08:11:20.058Z,14.80
2019-05-12T08:14:29.196Z,14.53
2019-05-12T08:17:30.792Z,17.93
2019-05-12T08:20:35.663Z,14.93
2019-05-12T08:23:41.114Z,13.87
2019-05-12T08:26:49.593Z,14.33
2019-05-12T08:30:00.995Z,11.87
2019-05-12T08:33:03.740Z,12.67
2019-05-12T08:36:14.011Z,12.63
2019-05-12T08:39:21.274Z,10.97
2019-05-12T08:42:23.974Z,8.90
2019-05-12T08:45:33.981Z,9.30
2019-05-12T08:48:36.512Z,7.63
2019-05-12T08:51:44.102Z,8.57
2019-05-12T08:54:49.532Z,7.63
2019-05-12T08:57:54.752Z,7.97
2019-05-12T09:01:00.591Z,9.83
2019-05-12T09:04:12.143Z,8.77
2019-05-12T09:07:15.604Z,7.40
2019-05-12T09:10:23.510Z,10.87
2019-05-12T09:13:27.913Z,10.20
2019-05-12T09:16:33.677Z,7.63
2019-05-12T09:19:39.886Z,8.63
2019-05-12T09:22:44.777Z,10.07
2019-05-12T09:25:50.015Z,11.07
2019-05-12T09:28:56.506Z,10.03
2019-05-12T09:32:05.438Z,9.80
2019-05-12T09:35:09.020Z,10.17
2019-05-12T09:38:21.200Z,11.60
2019-05-12T09:41:20.372Z,10.27
2019-05-12T09:44:30.394Z,8.73
2019-05-12T09:47:35.259Z,11.60
2019-05-12T09:50:40.115Z,11.87
2019-05-12T09:53:50.921Z,14.20
2019-05-12T09:56:55.334Z,14.50
2019-05-12T09:59:59.536Z,15.23
2019-05-12T10:03:08.092Z,14.60
2019-05-12T10:06:16.754Z,12.63
2019-05-12T10:09:19.777Z,12.80
2019-05-12T10:12:24.557Z,12.23
2019-05-12T10:15:29.351Z,11.10
2019-05-12T10:18:34.250Z,11.67
2019-05-12T10:21:38.982Z,9.77
2019-05-12T10:24:55.250Z,7.33
2019-05-12T10:27:53.150Z,6.07
2019-05-12T10:30:57.538Z,4.27
2019-05-12T10:34:24.017Z,6.37
2019-05-12T10:37:29.530Z,5.30
2019-05-12T10:40:34.195Z,4.97
2019-05-12T10:43:39.003Z,4.17
2019-05-12T10:46:44.424Z,6.67
2019-05-12T10:49:49.469Z,8.23
2019-05-12T10:52:53.991Z,6.33
2019-05-12T10:55:58.909Z,5.57
2019-05-12T10:59:05.070Z,6.47
2019-05-12T11:02:10.005Z,9.07
2019-05-12T11:05:21.418Z,4.60
2019-05-12T11:08:21.086Z,6.57
2019-05-12T11:11:31.976Z,10.23
2019-05-12T11:14:34.314Z,13.80
2019-05-12T11:18:13.461Z,19.97
2019-05-12T11:21:34.143Z,21.20
2019-05-12T11:24:44.625Z,25.30
2019-05-12T11:27:50.058Z,25.90
2019-05-12T11:31:13.525Z,24.77
2019-05-12T11:34:17.467Z,29.23
2019-05-12T11:37:23.123Z,37.50
2019-05-12T11:40:27.748Z,35.00
2019-05-12T11:43:33.771Z,35.47
2019-05-12T11:46:38.440Z,34.67
2019-05-12T11:49:44.145Z,39.60
2019-05-12T11:52:51.094Z,37.77
2019-05-12T11:55:55.465Z,36.17
2019-05-12T11:59:00.334Z,40.07
2019-05-12T12:02:05.113Z,40.30
2019-05-12T12:05:09.877Z,39.47
2019-05-12T12:08:14.702Z,42.30
2019-05-12T12:11:24.739Z,39.93
2019-05-12T12:14:31.590Z,37.70
2019-05-12T12:17:35.743Z,41.33
2019-05-12T12:20:40.307Z,40.23
2019-05-12T12:23:48.815Z,42.97
2019-05-12T12:26:53.622Z,37.67
2019-05-12T12:29:57.779Z,35.00
2019-05-12T12:33:04.140Z,34.00
2019-05-12T12:36:08.610Z,26.43
2019-05-12T12:39:23.651Z,28.23
2019-05-12T12:42:30.272Z,27.27
2019-05-12T12:45:53.728Z,26.57
2019-05-12T12:49:05.217Z,27.80
2019-05-12T12:52:07.442Z,26.20
2019-05-12T12:55:14.005Z,31.57
2019-05-12T12:58:21.137Z,35.47
2019-05-12T13:01:29.189Z,32.40
2019-05-12T13:04:43.082Z,33.50
2019-05-12T13:07:49.503Z,32.60
2019-05-12T13:10:55.443Z,33.63
2019-05-12T13:13:59.938Z,31.70
2019-05-12T13:17:04.433Z,33.53
2019-05-12T13:20:09.340Z,30.50
2019-05-12T13:23:14.349Z,30.87
2019-05-12T13:26:19.002Z,29.27
2019-05-12T13:29:26.365Z,31.27
2019-05-12T13:32:32.347Z,31.77
2019-05-12T13:35:35.793Z,31.53
2019-05-12T13:38:40.694Z,29.67
2019-05-12T13:41:45.231Z,30.93
2019-05-12T13:44:50.137Z,31.43
2019-05-12T13:47:57.855Z,32.93
2019-05-12T13:51:08.304Z,29.67
2019-05-12T13:54:08.343Z,28.47
2019-05-12T13:57:13.401Z,27.03
2019-05-12T14:00:18.237Z,31.63
2019-05-12T14:03:22.707Z,30.17
2019-05-12T14:06:32.170Z,27.57
2019-05-12T14:09:34.326Z,31.03
2019-05-12T14:12:49.557Z,26.03
2019-05-12T14:16:02.851Z,22.10
2019-05-12T14:19:07.203Z,24.23
2019-05-12T14:22:15.560Z,26.47
2019-05-12T14:25:20.938Z,30.10
2019-05-12T14:28:24.656Z,30.20
2019-05-12T14:31:35.147Z,32.83
2019-05-12T14:34:59.149Z,31.57
2019-05-12T14:37:59.900Z,30.17
2019-05-12T14:41:10.541Z,35.90
2019-05-12T14:44:13.568Z,32.07
2019-05-12T14:47:25.687Z,30.17
2019-05-12T14:50:25.602Z,29.23
2019-05-12T14:53:32.854Z,28.90
2019-05-12T14:56:36.534Z,27.87
2019-05-12T14:59:43.060Z,23.93
2019-05-12T15:02:47.641Z,23.63
2019-05-12T15:05:54.532Z,24.13
2019-05-12T15:08:59.923Z,24.63
2019-05-12T15:12:16.276Z,23.33
2019-05-12T15:15:40.533Z,27.33
2019-05-12T15:18:49.094Z,23.77
2019-05-12T15:21:53.724Z,25.57
2019-05-12T15:24:59.109Z,25.30
2019-05-12T15:28:04.033Z,28.60
2019-05-12T15:31:09.223Z,29.20
2019-05-12T15:34:14.398Z,30.27
2019-05-12T15:37:19.313Z,26.27
2019-05-12T15:40:23.890Z,32.43
2019-05-12T15:43:29.701Z,33.70
2019-05-12T15:46:41.259Z,35.60
2019-05-12T15:49:40.758Z,39.73
2019-05-12T15:52:46.456Z,41.03
2019-05-12T15:55:50.980Z,47.03
2019-05-12T15:58:55.804Z,46.63
2019-05-12T16:02:11.976Z,51.00
2019-05-12T16:05:10.201Z,47.20
2019-05-12T16:08:18.070Z,48.10
2019-05-12T16:11:24.411Z,47.37
2019-05-12T16:14:30.366Z,44.60
2019-05-12T16:17:36.285Z,42.00
2019-05-12T16:20:41.367Z,41.57
2019-05-12T16:23:46.258Z,39.93
2019-05-12T16:26:53.167Z,41.30
2019-05-12T16:29:58.709Z,43.40
2019-05-12T16:33:04.898Z,41.10
2019-05-12T16:36:14.270Z,36.83
2019-05-12T16:39:16.756Z,34.67
2019-05-12T16:42:23.580Z,33.40
2019-05-12T16:45:34.062Z,29.80
2019-05-12T16:48:42.109Z,31.47
2019-05-12T16:51:47.702Z,31.43
2019-05-12T16:54:54.041Z,29.53
2019-05-12T16:57:59.128Z,29.60
2019-05-12T17:01:04.090Z,29.47
2019-05-12T17:04:13.300Z,30.43
2019-05-12T17:07:20.771Z,30.40
2019-05-12T17:10:24.977Z,29.13
2019-05-12T17:13:29.494Z,32.17
2019-05-12T17:16:42.049Z,26.40
2019-05-12T17:19:43.337Z,29.87
2019-05-12T17:22:54.379Z,28.50
2019-05-12T17:25:57.349Z,28.20
2019-05-12T17:29:02.911Z,27.27
2019-05-12T17:32:08.241Z,26.57
2019-05-12T17:35:14.977Z,21.67
2019-05-12T17:38:24.904Z,24.13
2019-05-12T17:41:31.420Z,26.20
2019-05-12T17:44:37.338Z,25.50
2019-05-12T17:47:44.556Z,20.40
2019-05-12T17:50:50.654Z,19.43
2019-05-12T17:53:56.828Z,25.47
2019-05-12T17:57:04.021Z,18.17
2019-05-12T18:00:11.047Z,17.43
2019-05-12T18:03:21.846Z,17.40
2019-05-12T18:06:29.715Z,15.70
2019-05-12T18:09:31.445Z,18.67
2019-05-12T18:12:44.458Z,18.90
2019-05-12T18:15:44.701Z,17.90
2019-05-12T18:18:49.919Z,17.10
2019-05-12T18:22:02.796Z,18.10
2019-05-12T18:25:04.150Z,16.70
2019-05-12T18:28:11.006Z,18.97
2019-05-12T18:31:16.070Z,18.23
2019-05-12T18:34:22.308Z,16.60
2019-05-12T18:37:27.971Z,20.23
2019-05-12T18:40:34.471Z,19.27
2019-05-12T18:43:39.630Z,19.17
2019-05-12T18:46:46.626Z,21.90
2019-05-12T18:49:53.868Z,23.27
2019-05-12T18:52:58.707Z,24.10
2019-05-12T18:56:10.247Z,22.70
2019-05-12T18:59:13.693Z,20.73
2019-05-12T19:02:23.273Z,23.37
2019-05-12T19:05:30.868Z,22.40
2019-05-12T19:08:34.968Z,18.43
2019-05-12T19:11:44.323Z,18.63
2019-05-12T19:14:51.767Z,18.40
2019-05-12T19:17:55.047Z,16.23
2019-05-12T19:21:00.244Z,14.33
2019-05-12T19:24:08.592Z,16.57
2019-05-12T19:27:16.568Z,14.93
2019-05-12T19:30:25.264Z,14.00
2019-05-12T19:33:28.138Z,14.73
2019-05-12T19:36:35.922Z,14.20
2019-05-12T19:39:46.101Z,13.80
2019-05-12T19:42:53.738Z,13.80
2019-05-12T19:46:02.963Z,12.00
2019-05-12T19:49:04.517Z,12.20
2019-05-12T19:52:09.554Z,12.20
2019-05-12T19:55:15.532Z,13.87
2019-05-12T19:58:23.615Z,12.87
2019-05-12T20:01:32.802Z,9.33
2019-05-12T20:04:42.066Z,11.27
2019-05-12T20:07:44.374Z,11.03
2019-05-12T20:10:49.614Z,9.87
2019-05-12T20:13:54.317Z,11.37
2019-05-12T20:16:58.907Z,12.10
2019-05-12T20:20:04.759Z,11.90
2019-05-12T20:23:10.762Z,8.60
2019-05-12T20:26:15.297Z,10.40
2019-05-12T20:29:24.561Z,9.37
2019-05-12T20:32:28.928Z,10.93
2019-05-12T20:35:33.958Z,9.63
2019-05-12T20:38:41.074Z,12.83
2019-05-12T20:41:46.069Z,8.27
2019-05-12T20:44:57.932Z,8.03
2019-05-12T20:47:58.578Z,8.77
2019-05-12T20:51:03.694Z,10.50
2019-05-12T20:54:14.118Z,8.07
2019-05-12T20:57:16.529Z,6.93
2019-05-12T21:00:21.038Z,7.10
2019-05-12T21:03:25.609Z,7.50
2019-05-12T21:06:33.126Z,8.90
2019-05-12T21:09:36.228Z,8.37
2019-05-12T21:12:46.159Z,8.50
2019-05-12T21:15:47.057Z,9.57
2019-05-12T21:19:02.109Z,9.43
2019-05-12T21:21:59.191Z,8.13
2019-05-12T21:25:04.283Z,8.30
2019-05-12T21:28:08.707Z,8.43
2019-05-12T21:31:15.229Z,7.97
2019-05-12T21:34:21.567Z,7.57
2019-05-12T21:37:25.813Z,7.60
2019-05-12T21:40:31.937Z,9.20
2019-05-12T21:43:36.530Z,11.77
2019-05-12T21:46:47.406Z,7.00
2019-05-12T21:49:48.630Z,12.70
2019-05-12T21:52:59.362Z,5.07
2019-05-12T21:56:04.294Z,7.73
2019-05-12T21:59:07.999Z,7.13
2019-05-12T22:02:14.673Z,6.80
2019-05-12T22:05:23.651Z,9.97
2019-05-12T22:08:27.237Z,6.13
2019-05-12T22:11:34.385Z,8.13
2019-05-12T22:14:40.785Z,6.67
2019-05-12T22:18:04.744Z,6.57
2019-05-12T22:21:08.736Z,8.90
2019-05-12T22:24:14.627Z,6.90
2019-05-12T22:27:22.887Z,8.03
2019-05-12T22:30:27.116Z,7.53
2019-05-12T22:33:33.407Z,6.87
2019-05-12T22:36:37.607Z,9.33
2019-05-12T22:39:44.400Z,8.13
2019-05-12T22:42:50.694Z,6.80
2019-05-12T22:45:55.507Z,8.40
2019-05-12T22:48:59.847Z,8.70
2019-05-12T22:52:07.259Z,9.10
2019-05-12T22:55:14.009Z,7.90
2019-05-12T22:58:22.479Z,7.27
2019-05-12T23:01:25.202Z,6.93
2019-05-12T23:04:35.667Z,7.37
2019-05-12T23:07:36.196Z,7.13
2019-05-12T23:10:41.496Z,8.30
2019-05-12T23:13:47.341Z,6.83
2019-05-12T23:16:54.371Z,7.67
2019-05-12T23:19:58.519Z,6.17
2019-05-12T23:23:08.867Z,5.97
2019-05-12T23:26:10.956Z,6.63
2019-05-12T23:29:20.318Z,5.93
2019-05-12T23:32:24.056Z,7.00
2019-05-12T23:35:28.383Z,5.73
2019-05-12T23:38:34.848Z,6.57
2019-05-12T23:41:39.995Z,6.13
2019-05-12T23:44:44.997Z,5.80
2019-05-12T23:47:49.471Z,4.40
2019-05-12T23:50:54.329Z,5.63
2019-05-12T23:54:00.296Z,6.03
2019-05-12T23:57:05.360Z,4.90
